createdAt,value
2018-10-09T00:00:23.669Z,1016.28
2018-10-09T00:01:23.592Z,1016.24
2018-10-09T00:02:44.497Z,1016.25
2018-10-09T00:03:23.440Z,1016.25
2018-10-09T00:04:23.360Z,1016.20
2018-10-09T00:05:23.281Z,1016.20
2018-10-09T00:06:23.208Z,1016.16
2018-10-09T00:07:23.128Z,1016.14
2018-10-09T00:08:44.029Z,1016.10
2018-10-09T00:09:22.972Z,1016.09
2018-10-09T00:10:22.892Z,1016.06
2018-10-09T00:11:22.816Z,1016.05
2018-10-09T00:12:22.739Z,1016.09
2018-10-09T00:13:22.662Z,1016.11
2018-10-09T00:14:43.564Z,1016.07
2018-10-09T00:15:22.506Z,1016.04
2018-10-09T00:16:22.426Z,1015.97
2018-10-09T00:17:22.369Z,1015.97
2018-10-09T00:18:22.274Z,1015.95
2018-10-09T00:19:22.196Z,1015.92
2018-10-09T00:20:43.098Z,1015.91
2018-10-09T00:21:22.041Z,1015.88
2018-10-09T00:22:21.963Z,1015.92
2018-10-09T00:23:21.884Z,1015.91
2018-10-09T00:24:21.809Z,1015.88
2018-10-09T00:25:21.726Z,1015.89
2018-10-09T00:26:42.633Z,1015.91
2018-10-09T00:27:21.574Z,1015.90
2018-10-09T00:28:21.496Z,1015.90
2018-10-09T00:29:21.416Z,1015.85
2018-10-09T00:30:21.339Z,1015.85
2018-10-09T00:31:21.261Z,1015.83
2018-10-09T00:32:42.164Z,1015.87
2018-10-09T00:33:21.115Z,1015.89
2018-10-09T00:34:21.035Z,1015.89
2018-10-09T00:35:20.952Z,1015.94
2018-10-09T00:36:20.873Z,1015.93
2018-10-09T00:37:20.793Z,1015.95
2018-10-09T00:38:41.701Z,1015.94
2018-10-09T00:39:20.641Z,1015.93
2018-10-09T00:40:20.561Z,1015.95
2018-10-09T00:41:20.487Z,1015.91
2018-10-09T00:42:20.406Z,1015.94
2018-10-09T00:43:20.329Z,1015.97
2018-10-09T00:44:41.236Z,1015.94
2018-10-09T00:45:20.174Z,1015.93
2018-10-09T00:46:20.096Z,1015.92
2018-10-09T00:47:20.020Z,1015.93
2018-10-09T00:48:19.942Z,1015.92
2018-10-09T00:49:19.864Z,1015.89
2018-10-09T00:50:40.770Z,1015.84
2018-10-09T00:51:19.706Z,1015.81
2018-10-09T00:52:19.632Z,1015.78
2018-10-09T00:53:19.552Z,1015.70
2018-10-09T00:54:19.475Z,1015.66
2018-10-09T00:55:19.396Z,1015.62
2018-10-09T00:56:40.305Z,1015.59
2018-10-09T00:57:19.268Z,1015.56
2018-10-09T00:58:19.162Z,1015.52
2018-10-09T00:59:19.084Z,1015.51
2018-10-09T01:00:19.007Z,1015.51
2018-10-09T01:01:18.931Z,1015.53
2018-10-09T01:02:39.868Z,1015.51
2018-10-09T01:03:18.775Z,1015.48
2018-10-09T01:04:18.698Z,1015.46
2018-10-09T01:05:18.621Z,1015.47
2018-10-09T01:06:18.550Z,1015.47
2018-10-09T01:07:18.463Z,1015.45
2018-10-09T01:08:39.440Z,1015.44
2018-10-09T01:09:18.383Z,1015.44
2018-10-09T01:10:18.230Z,1015.40
2018-10-09T01:11:18.153Z,1015.41
2018-10-09T01:12:18.079Z,1015.38
2018-10-09T01:13:17.998Z,1015.39
2018-10-09T01:14:38.901Z,1015.37
2018-10-09T01:15:17.844Z,1015.34
2018-10-09T01:16:17.764Z,1015.31
2018-10-09T01:17:17.687Z,1015.29
2018-10-09T01:18:17.607Z,1015.30
2018-10-09T01:19:17.530Z,1015.26
2018-10-09T01:20:38.435Z,1015.31
2018-10-09T01:21:17.378Z,1015.31
2018-10-09T01:22:17.300Z,1015.35
2018-10-09T01:23:17.220Z,1015.37
2018-10-09T01:24:17.144Z,1015.39
2018-10-09T01:25:17.065Z,1015.42
2018-10-09T01:26:37.966Z,1015.41
2018-10-09T01:27:16.914Z,1015.44
2018-10-09T01:28:16.829Z,1015.42
2018-10-09T01:29:16.751Z,1015.46
2018-10-09T01:30:16.677Z,1015.48
2018-10-09T01:31:16.594Z,1015.53
2018-10-09T01:32:37.500Z,1015.51
2018-10-09T01:33:16.441Z,1015.46
2018-10-09T01:34:16.364Z,1015.50
2018-10-09T01:35:16.284Z,1015.47
2018-10-09T01:36:16.207Z,1015.48
2018-10-09T01:37:16.130Z,1015.46
2018-10-09T01:38:37.035Z,1015.42
2018-10-09T01:39:15.978Z,1015.45
2018-10-09T01:40:15.893Z,1015.40
2018-10-09T01:41:15.818Z,1015.40
2018-10-09T01:42:15.744Z,1015.45
2018-10-09T01:43:15.659Z,1015.39
2018-10-09T01:44:36.562Z,1015.41
2018-10-09T01:45:15.507Z,1015.40
2018-10-09T01:46:15.430Z,1015.43
2018-10-09T01:47:15.350Z,1015.48
2018-10-09T01:48:15.269Z,1015.47
2018-10-09T01:49:15.194Z,1015.45
2018-10-09T01:50:36.099Z,1015.49
2018-10-09T01:51:15.037Z,1015.47
2018-10-09T01:52:14.962Z,1015.46
2018-10-09T01:53:14.881Z,1015.43
2018-10-09T01:54:14.804Z,1015.42
2018-10-09T01:55:14.727Z,1015.38
2018-10-09T01:56:35.630Z,1015.45
2018-10-09T01:57:14.570Z,1015.43
2018-10-09T01:58:14.496Z,1015.41
2018-10-09T01:59:14.416Z,1015.40
2018-10-09T02:00:14.335Z,1015.41
2018-10-09T02:01:14.270Z,1015.41
2018-10-09T02:02:35.161Z,1015.38
2018-10-09T02:03:14.099Z,1015.37
2018-10-09T02:04:14.024Z,1015.32
2018-10-09T02:05:13.952Z,1015.37
2018-10-09T02:06:13.868Z,1015.38
2018-10-09T02:07:13.788Z,1015.37
2018-10-09T02:08:34.692Z,1015.36
2018-10-09T02:09:13.633Z,1015.37
2018-10-09T02:10:13.557Z,1015.37
2018-10-09T02:11:13.477Z,1015.36
2018-10-09T02:12:13.400Z,1015.38
2018-10-09T02:13:13.320Z,1015.38
2018-10-09T02:14:34.231Z,1015.41
2018-10-09T02:15:13.165Z,1015.39
2018-10-09T02:16:13.091Z,1015.41
2018-10-09T02:17:13.007Z,1015.44
2018-10-09T02:18:12.929Z,1015.45
2018-10-09T02:19:12.851Z,1015.40
2018-10-09T02:20:33.759Z,1015.44
2018-10-09T02:21:12.695Z,1015.42
2018-10-09T02:22:12.618Z,1015.38
2018-10-09T02:23:12.539Z,1015.44
2018-10-09T02:24:12.463Z,1015.42
2018-10-09T02:25:12.390Z,1015.45
2018-10-09T02:26:33.286Z,1015.48
2018-10-09T02:27:12.229Z,1015.48
2018-10-09T02:28:12.149Z,1015.54
2018-10-09T02:29:12.072Z,1015.51
2018-10-09T02:30:11.996Z,1015.57
2018-10-09T02:31:11.918Z,1015.57
2018-10-09T02:32:32.821Z,1015.56
2018-10-09T02:33:11.761Z,1015.58
2018-10-09T02:34:11.684Z,1015.58
2018-10-09T02:35:11.602Z,1015.63
2018-10-09T02:36:11.525Z,1015.63
2018-10-09T02:37:11.451Z,1015.63
2018-10-09T02:38:32.350Z,1015.66
2018-10-09T02:39:11.298Z,1015.66
2018-10-09T02:40:11.213Z,1015.73
2018-10-09T02:41:11.137Z,1015.72
2018-10-09T02:42:11.060Z,1015.69
2018-10-09T02:43:10.980Z,1015.67
2018-10-09T02:44:31.879Z,1015.67
2018-10-09T02:45:10.894Z,1015.69
2018-10-09T02:46:10.745Z,1015.63
2018-10-09T02:47:10.664Z,1015.65
2018-10-09T02:48:10.598Z,1015.58
2018-10-09T02:49:10.515Z,1015.56
2018-10-09T02:50:31.412Z,1015.51
2018-10-09T02:51:10.353Z,1015.51
2018-10-09T02:52:10.277Z,1015.50
2018-10-09T02:53:10.199Z,1015.55
2018-10-09T02:54:10.126Z,1015.54
2018-10-09T02:55:10.045Z,1015.52
2018-10-09T02:56:30.943Z,1015.52
2018-10-09T02:57:09.887Z,1015.48
2018-10-09T02:58:09.807Z,1015.44
2018-10-09T02:59:09.730Z,1015.44
2018-10-09T03:00:09.651Z,1015.42
2018-10-09T03:01:09.576Z,1015.44
2018-10-09T03:02:30.480Z,1015.42
2018-10-09T03:03:09.415Z,1015.43
2018-10-09T03:04:09.338Z,1015.43
2018-10-09T03:05:09.258Z,1015.41
2018-10-09T03:06:09.179Z,1015.37
2018-10-09T03:07:09.104Z,1015.36
2018-10-09T03:08:30.065Z,1015.39
2018-10-09T03:09:08.945Z,1015.27
2018-10-09T03:10:08.870Z,1015.27
2018-10-09T03:11:08.788Z,1015.24
2018-10-09T03:12:08.711Z,1015.27
2018-10-09T03:13:08.635Z,1015.27
2018-10-09T03:14:29.537Z,1015.23
2018-10-09T03:15:08.475Z,1015.28
2018-10-09T03:16:08.407Z,1015.21
2018-10-09T03:17:08.320Z,1015.27
2018-10-09T03:18:08.243Z,1015.24
2018-10-09T03:19:08.164Z,1015.21
2018-10-09T03:20:29.079Z,1015.21
2018-10-09T03:21:08.007Z,1015.24
2018-10-09T03:22:07.932Z,1015.24
2018-10-09T03:23:07.849Z,1015.22
2018-10-09T03:24:07.780Z,1015.22
2018-10-09T03:25:07.695Z,1015.17
2018-10-09T03:26:28.596Z,1015.16
2018-10-09T03:27:07.536Z,1015.18
2018-10-09T03:28:07.457Z,1015.14
2018-10-09T03:29:07.383Z,1015.14
2018-10-09T03:30:07.308Z,1015.10
2018-10-09T03:31:07.223Z,1015.08
2018-10-09T03:32:28.129Z,1015.09
2018-10-09T03:33:07.070Z,1015.07
2018-10-09T03:34:06.990Z,1015.05
2018-10-09T03:35:06.912Z,1015.08
2018-10-09T03:36:06.836Z,1015.04
2018-10-09T03:37:06.761Z,1015.01
2018-10-09T03:38:27.660Z,1015.00
2018-10-09T03:39:06.601Z,1015.03
2018-10-09T03:40:06.521Z,1015.01
2018-10-09T03:41:06.439Z,1015.00
2018-10-09T03:42:06.364Z,1014.99
2018-10-09T03:43:06.290Z,1015.01
2018-10-09T03:44:27.193Z,1015.01
2018-10-09T03:45:06.128Z,1014.97
2018-10-09T03:46:06.051Z,1014.96
2018-10-09T03:47:05.971Z,1014.92
2018-10-09T03:48:05.896Z,1014.93
2018-10-09T03:49:05.817Z,1014.93
2018-10-09T03:50:26.717Z,1014.91
2018-10-09T03:51:05.658Z,1014.92
2018-10-09T03:52:05.579Z,1014.93
2018-10-09T03:53:05.511Z,1014.92
2018-10-09T03:54:05.435Z,1014.96
2018-10-09T03:55:05.345Z,1014.93
2018-10-09T03:56:26.255Z,1014.91
2018-10-09T03:57:05.188Z,1014.90
2018-10-09T03:58:05.131Z,1014.94
2018-10-09T03:59:05.032Z,1014.91
2018-10-09T04:00:04.959Z,1014.87
2018-10-09T04:01:04.877Z,1014.83
2018-10-09T04:02:25.781Z,1014.86
2018-10-09T04:03:04.718Z,1014.79
2018-10-09T04:04:04.645Z,1014.77
2018-10-09T04:05:04.562Z,1014.75
2018-10-09T04:06:04.485Z,1014.73
2018-10-09T04:07:04.404Z,1014.73
2018-10-09T04:08:25.310Z,1014.76
2018-10-09T04:09:04.303Z,1014.74
2018-10-09T04:10:04.174Z,1014.73
2018-10-09T04:11:04.091Z,1014.76
2018-10-09T04:12:04.016Z,1014.74
2018-10-09T04:13:03.936Z,1014.72
2018-10-09T04:14:24.838Z,1014.72
2018-10-09T04:15:03.778Z,1014.73
2018-10-09T04:16:03.721Z,1014.70
2018-10-09T04:17:03.622Z,1014.72
2018-10-09T04:18:03.545Z,1014.68
2018-10-09T04:19:03.466Z,1014.72
2018-10-09T04:20:24.372Z,1014.70
2018-10-09T04:21:03.307Z,1014.71
2018-10-09T04:22:03.233Z,1014.71
2018-10-09T04:23:03.153Z,1014.73
2018-10-09T04:24:03.076Z,1014.71
2018-10-09T04:25:03.000Z,1014.71
2018-10-09T04:26:23.897Z,1014.72
2018-10-09T04:27:02.838Z,1014.62
2018-10-09T04:28:02.760Z,1014.62
2018-10-09T04:29:02.687Z,1014.60
2018-10-09T04:30:02.636Z,1014.60
2018-10-09T04:31:02.528Z,1014.61
2018-10-09T04:32:23.428Z,1014.61
2018-10-09T04:33:02.368Z,1014.64
2018-10-09T04:34:02.293Z,1014.66
2018-10-09T04:35:02.212Z,1014.66
2018-10-09T04:36:02.133Z,1014.65
2018-10-09T04:37:02.055Z,1014.61
2018-10-09T04:38:22.962Z,1014.67
2018-10-09T04:39:01.899Z,1014.64
2018-10-09T04:40:01.820Z,1014.63
2018-10-09T04:41:01.744Z,1014.67
2018-10-09T04:42:01.675Z,1014.63
2018-10-09T04:43:01.583Z,1014.67
2018-10-09T04:44:22.485Z,1014.64
2018-10-09T04:45:01.437Z,1014.67
2018-10-09T04:46:01.353Z,1014.70
2018-10-09T04:47:01.271Z,1014.69
2018-10-09T04:48:01.195Z,1014.73
2018-10-09T04:49:01.116Z,1014.71
2018-10-09T04:50:22.016Z,1014.74
2018-10-09T04:51:00.960Z,1014.74
2018-10-09T04:52:00.890Z,1014.72
2018-10-09T04:53:00.810Z,1014.75
2018-10-09T04:54:00.725Z,1014.76
2018-10-09T04:55:00.648Z,1014.78
2018-10-09T04:56:21.549Z,1014.79
2018-10-09T04:57:00.488Z,1014.76
2018-10-09T04:58:00.413Z,1014.75
2018-10-09T04:59:00.334Z,1014.73
2018-10-09T05:00:00.255Z,1014.74
2018-10-09T05:01:00.177Z,1014.71
2018-10-09T05:02:21.080Z,1014.70
2018-10-09T05:03:00.021Z,1014.74
2018-10-09T05:03:59.942Z,1014.68
2018-10-09T05:04:59.865Z,1014.74
2018-10-09T05:05:59.786Z,1014.70
2018-10-09T05:06:59.705Z,1014.69
2018-10-09T05:08:20.607Z,1014.71
2018-10-09T05:08:59.546Z,1014.74
2018-10-09T05:09:59.481Z,1014.71
2018-10-09T05:10:59.393Z,1014.69
2018-10-09T05:11:59.314Z,1014.67
2018-10-09T05:12:59.235Z,1014.74
2018-10-09T05:14:20.138Z,1014.74
2018-10-09T05:14:59.088Z,1014.70
2018-10-09T05:15:59.000Z,1014.69
2018-10-09T05:16:58.920Z,1014.69
2018-10-09T05:17:58.845Z,1014.71
2018-10-09T05:18:58.764Z,1014.69
2018-10-09T05:20:19.667Z,1014.70
2018-10-09T05:20:58.608Z,1014.73
2018-10-09T05:21:58.530Z,1014.71
2018-10-09T05:22:58.448Z,1014.70
2018-10-09T05:23:58.378Z,1014.72
2018-10-09T05:24:58.295Z,1014.72
2018-10-09T05:26:19.198Z,1014.72
2018-10-09T05:26:58.142Z,1014.72
2018-10-09T05:27:58.059Z,1014.76
2018-10-09T05:28:57.979Z,1014.75
2018-10-09T05:29:57.900Z,1014.81
2018-10-09T05:30:57.854Z,1014.80
2018-10-09T05:32:18.726Z,1014.80
2018-10-09T05:32:57.666Z,1014.81
2018-10-09T05:33:57.591Z,1014.81
2018-10-09T05:34:57.509Z,1014.83
2018-10-09T05:35:57.432Z,1014.81
2018-10-09T05:36:57.352Z,1014.84
2018-10-09T05:38:18.254Z,1014.81
2018-10-09T05:38:57.200Z,1014.80
2018-10-09T05:39:57.117Z,1014.83
2018-10-09T05:40:57.044Z,1014.86
2018-10-09T05:41:56.964Z,1014.87
2018-10-09T05:42:56.885Z,1014.90
2018-10-09T05:44:17.820Z,1014.91
2018-10-09T05:44:56.737Z,1014.93
2018-10-09T05:45:56.655Z,1014.95
2018-10-09T05:46:56.571Z,1014.92
2018-10-09T05:47:56.492Z,1014.90
2018-10-09T05:48:56.420Z,1014.91
2018-10-09T05:50:17.323Z,1014.97
2018-10-09T05:50:56.259Z,1014.91
2018-10-09T05:51:56.180Z,1014.93
2018-10-09T05:52:56.099Z,1014.93
2018-10-09T05:53:56.024Z,1014.91
2018-10-09T05:54:55.944Z,1014.93
2018-10-09T05:56:16.851Z,1014.98
2018-10-09T05:56:55.788Z,1014.94
2018-10-09T05:57:55.721Z,1014.94
2018-10-09T05:58:55.632Z,1014.93
2018-10-09T05:59:55.554Z,1014.95
2018-10-09T06:00:55.479Z,1014.94
2018-10-09T06:02:16.379Z,1014.98
2018-10-09T06:02:55.319Z,1014.97
2018-10-09T06:03:55.243Z,1015.02
2018-10-09T06:04:55.164Z,1015.00
2018-10-09T06:05:55.155Z,1015.00
2018-10-09T06:06:55.009Z,1015.03
2018-10-09T06:08:15.911Z,1015.04
2018-10-09T06:08:54.851Z,1015.03
2018-10-09T06:09:54.770Z,1015.06
2018-10-09T06:10:54.691Z,1015.11
2018-10-09T06:11:54.620Z,1015.10
2018-10-09T06:12:54.538Z,1015.15
2018-10-09T06:14:15.441Z,1015.18
2018-10-09T06:14:54.377Z,1015.13
2018-10-09T06:15:54.446Z,1015.13
2018-10-09T06:16:54.224Z,1015.14
2018-10-09T06:17:54.144Z,1015.16
2018-10-09T06:18:54.066Z,1015.17
2018-10-09T06:20:14.968Z,1015.16
2018-10-09T06:20:53.914Z,1015.19
2018-10-09T06:21:53.830Z,1015.23
2018-10-09T06:22:53.752Z,1015.25
2018-10-09T06:23:53.674Z,1015.28
2018-10-09T06:24:53.599Z,1015.28
2018-10-09T06:26:14.498Z,1015.28
2018-10-09T06:26:53.441Z,1015.32
2018-10-09T06:27:53.377Z,1015.30
2018-10-09T06:28:53.283Z,1015.37
2018-10-09T06:29:53.207Z,1015.34
2018-10-09T06:30:53.126Z,1015.32
2018-10-09T06:32:14.032Z,1015.39
2018-10-09T06:32:52.971Z,1015.34
2018-10-09T06:33:52.912Z,1015.37
2018-10-09T06:34:52.813Z,1015.35
2018-10-09T06:35:52.736Z,1015.39
2018-10-09T06:36:52.659Z,1015.34
2018-10-09T06:38:13.565Z,1015.37
2018-10-09T06:38:52.503Z,1015.39
2018-10-09T06:39:52.449Z,1015.42
2018-10-09T06:40:52.344Z,1015.42
2018-10-09T06:41:52.271Z,1015.46
2018-10-09T06:42:52.220Z,1015.49
2018-10-09T06:44:13.118Z,1015.55
2018-10-09T06:44:52.039Z,1015.51
2018-10-09T06:45:51.954Z,1015.49
2018-10-09T06:46:51.878Z,1015.51
2018-10-09T06:47:51.801Z,1015.51
2018-10-09T06:48:51.724Z,1015.56
2018-10-09T06:50:12.627Z,1015.56
2018-10-09T06:50:51.565Z,1015.55
2018-10-09T06:51:51.488Z,1015.56
2018-10-09T06:52:51.410Z,1015.57
2018-10-09T06:53:51.571Z,1015.55
2018-10-09T06:54:51.298Z,1015.58
2018-10-09T06:56:12.159Z,1015.55
2018-10-09T06:56:51.099Z,1015.58
2018-10-09T06:57:51.019Z,1015.54
2018-10-09T06:58:50.939Z,1015.58
2018-10-09T06:59:50.939Z,1015.59
2018-10-09T07:00:50.829Z,1015.61
2018-10-09T07:02:11.689Z,1015.66
2018-10-09T07:02:50.630Z,1015.68
2018-10-09T07:03:50.552Z,1015.74
2018-10-09T07:04:50.478Z,1015.78
2018-10-09T07:05:50.402Z,1015.76
2018-10-09T07:06:50.317Z,1015.76
2018-10-09T07:08:11.223Z,1015.78
2018-10-09T07:08:50.189Z,1015.81
2018-10-09T07:09:50.084Z,1015.82
2018-10-09T07:10:50.009Z,1015.81
2018-10-09T07:11:49.930Z,1015.82
2018-10-09T07:12:49.854Z,1015.81
2018-10-09T07:14:10.755Z,1015.85
2018-10-09T07:14:49.697Z,1015.86
2018-10-09T07:15:49.620Z,1015.89
2018-10-09T07:16:49.545Z,1015.88
2018-10-09T07:17:49.469Z,1015.91
2018-10-09T07:18:49.389Z,1015.90
2018-10-09T07:20:10.292Z,1015.92
2018-10-09T07:20:49.233Z,1015.89
2018-10-09T07:21:49.157Z,1015.90
2018-10-09T07:22:49.085Z,1015.93
2018-10-09T07:23:48.999Z,1015.90
2018-10-09T07:24:48.921Z,1015.95
2018-10-09T07:26:09.826Z,1016.00
2018-10-09T07:26:48.768Z,1015.97
2018-10-09T07:27:48.738Z,1016.03
2018-10-09T07:28:48.612Z,1016.02
2018-10-09T07:29:48.536Z,1016.05
2018-10-09T07:30:48.457Z,1016.10
2018-10-09T07:32:09.361Z,1016.09
2018-10-09T07:32:48.308Z,1016.12
2018-10-09T07:33:48.231Z,1016.13
2018-10-09T07:34:48.151Z,1016.12
2018-10-09T07:35:48.072Z,1016.15
2018-10-09T07:36:47.992Z,1016.12
2018-10-09T07:38:08.898Z,1016.11
2018-10-09T07:38:47.840Z,1016.19
2018-10-09T07:39:47.764Z,1016.18
2018-10-09T07:40:47.690Z,1016.17
2018-10-09T07:41:47.609Z,1016.17
2018-10-09T07:42:47.532Z,1016.22
2018-10-09T07:44:08.543Z,1016.19
2018-10-09T07:44:47.384Z,1016.21
2018-10-09T07:45:47.306Z,1016.22
2018-10-09T07:46:47.224Z,1016.21
2018-10-09T07:47:47.147Z,1016.24
2018-10-09T07:48:47.074Z,1016.23
2018-10-09T07:50:07.980Z,1016.26
2018-10-09T07:50:46.929Z,1016.24
2018-10-09T07:51:46.903Z,1016.31
2018-10-09T07:52:46.881Z,1016.28
2018-10-09T07:53:46.688Z,1016.32
2018-10-09T07:54:46.617Z,1016.31
2018-10-09T07:56:07.514Z,1016.29
2018-10-09T07:56:46.459Z,1016.32
2018-10-09T07:57:46.382Z,1016.28
2018-10-09T07:58:46.504Z,1016.37
2018-10-09T07:59:46.228Z,1016.37
2018-10-09T08:00:46.157Z,1016.41
2018-10-09T08:02:07.058Z,1016.40
2018-10-09T08:02:46.004Z,1016.41
2018-10-09T08:03:45.923Z,1016.43
2018-10-09T08:04:46.100Z,1016.40
2018-10-09T08:05:45.946Z,1016.43
2018-10-09T08:06:45.695Z,1016.40
2018-10-09T08:08:06.601Z,1016.42
2018-10-09T08:08:45.542Z,1016.39
2018-10-09T08:09:45.466Z,1016.42
2018-10-09T08:10:45.404Z,1016.42
2018-10-09T08:11:45.317Z,1016.44
2018-10-09T08:12:45.238Z,1016.45
2018-10-09T08:14:06.144Z,1016.51
2018-10-09T08:14:45.087Z,1016.46
2018-10-09T08:15:45.062Z,1016.45
2018-10-09T08:16:44.937Z,1016.45
2018-10-09T08:17:44.867Z,1016.45
2018-10-09T08:18:44.785Z,1016.38
2018-10-09T08:20:05.693Z,1016.37
2018-10-09T08:20:44.630Z,1016.37
2018-10-09T08:21:44.557Z,1016.41
2018-10-09T08:22:44.645Z,1016.43
2018-10-09T08:23:44.411Z,1016.40
2018-10-09T08:24:44.330Z,1016.41
2018-10-09T08:26:05.237Z,1016.46
2018-10-09T08:26:44.179Z,1016.43
2018-10-09T08:27:44.105Z,1016.40
2018-10-09T08:28:44.028Z,1016.41
2018-10-09T08:29:43.953Z,1016.45
2018-10-09T08:30:43.878Z,1016.40
2018-10-09T08:32:04.798Z,1016.45
2018-10-09T08:32:43.729Z,1016.44
2018-10-09T08:33:43.673Z,1016.49
2018-10-09T08:34:43.577Z,1016.50
2018-10-09T08:35:43.500Z,1016.52
2018-10-09T08:36:43.430Z,1016.50
2018-10-09T08:38:04.333Z,1016.48
2018-10-09T08:38:43.276Z,1016.52
2018-10-09T08:39:43.201Z,1016.54
2018-10-09T08:40:43.128Z,1016.50
2018-10-09T08:41:43.054Z,1016.50
2018-10-09T08:42:42.978Z,1016.49
2018-10-09T08:44:03.885Z,1016.50
2018-10-09T08:44:42.828Z,1016.53
2018-10-09T08:45:42.757Z,1016.50
2018-10-09T08:46:42.683Z,1016.55
2018-10-09T08:47:42.607Z,1016.54
2018-10-09T08:48:42.532Z,1016.55
2018-10-09T08:50:03.439Z,1016.57
2018-10-09T08:50:42.382Z,1016.61
2018-10-09T08:51:42.309Z,1016.60
2018-10-09T08:52:42.235Z,1016.58
2018-10-09T08:53:42.165Z,1016.61
2018-10-09T08:54:42.089Z,1016.59
2018-10-09T08:56:02.995Z,1016.58
2018-10-09T08:56:41.939Z,1016.57
2018-10-09T08:57:41.866Z,1016.57
2018-10-09T08:58:41.795Z,1016.60
2018-10-09T08:59:41.719Z,1016.60
2018-10-09T09:00:41.658Z,1016.60
2018-10-09T09:02:02.553Z,1016.59
2018-10-09T09:02:41.498Z,1016.64
2018-10-09T09:03:41.434Z,1016.62
2018-10-09T09:04:41.352Z,1016.61
2018-10-09T09:05:41.284Z,1016.58
2018-10-09T09:06:41.206Z,1016.54
2018-10-09T09:08:02.114Z,1016.51
2018-10-09T09:08:41.059Z,1016.51
2018-10-09T09:09:41.021Z,1016.52
2018-10-09T09:10:40.910Z,1016.53
2018-10-09T09:11:40.839Z,1016.50
2018-10-09T09:12:40.765Z,1016.57
2018-10-09T09:14:01.680Z,1016.54
2018-10-09T09:14:40.619Z,1016.55
2018-10-09T09:15:40.548Z,1016.55
2018-10-09T09:16:40.472Z,1016.56
2018-10-09T09:17:40.399Z,1016.52
2018-10-09T09:18:40.325Z,1016.55
2018-10-09T09:20:01.234Z,1016.53
2018-10-09T09:20:40.265Z,1016.51
2018-10-09T09:21:40.106Z,1016.50
2018-10-09T09:22:40.038Z,1016.53
2018-10-09T09:23:39.959Z,1016.50
2018-10-09T09:24:39.885Z,1016.52
2018-10-09T09:26:00.799Z,1016.50
2018-10-09T09:26:39.831Z,1016.52
2018-10-09T09:27:39.736Z,1016.49
2018-10-09T09:28:39.594Z,1016.46
2018-10-09T09:29:39.518Z,1016.48
2018-10-09T09:30:39.445Z,1016.51
2018-10-09T09:32:00.356Z,1016.50
2018-10-09T09:32:39.299Z,1016.52
2018-10-09T09:33:39.226Z,1016.48
2018-10-09T09:34:39.155Z,1016.52
2018-10-09T09:35:39.080Z,1016.51
2018-10-09T09:36:39.006Z,1016.53
2018-10-09T09:37:59.914Z,1016.56
2018-10-09T09:38:38.865Z,1016.48
2018-10-09T09:39:38.788Z,1016.39
2018-10-09T09:40:38.712Z,1016.41
2018-10-09T09:41:38.643Z,1016.41
2018-10-09T09:42:38.566Z,1016.41
2018-10-09T09:43:59.477Z,1016.43
2018-10-09T09:44:38.422Z,1016.40
2018-10-09T09:45:38.403Z,1016.42
2018-10-09T09:46:38.275Z,1016.42
2018-10-09T09:47:38.202Z,1016.42
2018-10-09T09:48:38.130Z,1016.42
2018-10-09T09:49:59.039Z,1016.39
2018-10-09T09:50:37.985Z,1016.45
2018-10-09T09:51:37.911Z,1016.40
2018-10-09T09:52:37.837Z,1016.40
2018-10-09T09:53:37.767Z,1016.46
2018-10-09T09:54:37.695Z,1016.41
2018-10-09T09:55:58.605Z,1016.43
2018-10-09T09:56:37.546Z,1016.47
2018-10-09T09:57:37.479Z,1016.46
2018-10-09T09:58:37.553Z,1016.42
2018-10-09T09:59:37.333Z,1016.44
2018-10-09T10:00:37.259Z,1016.43
2018-10-09T10:01:58.171Z,1016.44
2018-10-09T10:02:37.114Z,1016.44
2018-10-09T10:03:37.101Z,1016.42
2018-10-09T10:04:36.974Z,1016.40
2018-10-09T10:05:36.899Z,1016.40
2018-10-09T10:06:36.829Z,1016.40
2018-10-09T10:07:57.737Z,1016.42
2018-10-09T10:08:36.683Z,1016.45
2018-10-09T10:09:36.612Z,1016.40
2018-10-09T10:10:36.538Z,1016.39
2018-10-09T10:11:36.470Z,1016.41
2018-10-09T10:12:36.398Z,1016.43
2018-10-09T10:13:57.310Z,1016.42
2018-10-09T10:14:36.253Z,1016.43
2018-10-09T10:15:36.232Z,1016.40
2018-10-09T10:16:36.111Z,1016.45
2018-10-09T10:17:36.039Z,1016.41
2018-10-09T10:18:35.967Z,1016.47
2018-10-09T10:19:56.882Z,1016.43
2018-10-09T10:20:35.823Z,1016.42
2018-10-09T10:21:35.754Z,1016.43
2018-10-09T10:22:35.680Z,1016.39
2018-10-09T10:23:35.610Z,1016.37
2018-10-09T10:24:35.537Z,1016.41
2018-10-09T10:25:56.471Z,1016.40
2018-10-09T10:26:35.396Z,1016.41
2018-10-09T10:27:35.331Z,1016.40
2018-10-09T10:28:35.255Z,1016.42
2018-10-09T10:29:35.193Z,1016.41
2018-10-09T10:30:35.114Z,1016.39
2018-10-09T10:31:56.047Z,1016.40
2018-10-09T10:32:34.968Z,1016.40
2018-10-09T10:33:34.899Z,1016.42
2018-10-09T10:34:34.829Z,1016.41
2018-10-09T10:35:34.817Z,1016.37
2018-10-09T10:36:34.688Z,1016.39
2018-10-09T10:37:55.599Z,1016.33
2018-10-09T10:38:34.538Z,1016.34
2018-10-09T10:39:34.467Z,1016.32
2018-10-09T10:40:34.398Z,1016.29
2018-10-09T10:41:34.327Z,1016.29
2018-10-09T10:42:34.257Z,1016.28
2018-10-09T10:43:55.168Z,1016.27
2018-10-09T10:44:34.120Z,1016.27
2018-10-09T10:45:34.042Z,1016.26
2018-10-09T10:46:33.968Z,1016.26
2018-10-09T10:47:33.897Z,1016.24
2018-10-09T10:48:33.838Z,1016.26
2018-10-09T10:49:54.741Z,1016.23
2018-10-09T10:50:33.684Z,1016.20
2018-10-09T10:51:33.617Z,1016.23
2018-10-09T10:52:33.542Z,1016.21
2018-10-09T10:53:33.475Z,1016.22
2018-10-09T10:54:33.399Z,1016.24
2018-10-09T10:55:54.313Z,1016.20
2018-10-09T10:56:33.258Z,1016.22
2018-10-09T10:57:33.194Z,1016.20
2018-10-09T10:58:33.126Z,1016.20
2018-10-09T10:59:33.047Z,1016.18
2018-10-09T11:00:32.973Z,1016.16
2018-10-09T11:01:53.950Z,1016.16
2018-10-09T11:02:32.830Z,1016.16
2018-10-09T11:03:32.760Z,1016.19
2018-10-09T11:04:32.691Z,1016.13
2018-10-09T11:05:32.619Z,1016.13
2018-10-09T11:06:32.546Z,1016.14
2018-10-09T11:07:53.477Z,1016.13
2018-10-09T11:08:32.406Z,1016.11
2018-10-09T11:09:32.335Z,1016.11
2018-10-09T11:10:32.270Z,1016.07
2018-10-09T11:11:32.194Z,1016.12
2018-10-09T11:12:32.122Z,1016.08
2018-10-09T11:13:53.038Z,1016.10
2018-10-09T11:14:32.027Z,1016.08
2018-10-09T11:15:31.909Z,1016.07
2018-10-09T11:16:31.840Z,1016.06
2018-10-09T11:17:31.769Z,1016.03
2018-10-09T11:18:31.700Z,1016.05
2018-10-09T11:19:52.621Z,1016.04
2018-10-09T11:20:31.559Z,1016.02
2018-10-09T11:21:31.525Z,1016.00
2018-10-09T11:22:31.421Z,1016.02
2018-10-09T11:23:31.349Z,1016.00
2018-10-09T11:24:31.277Z,1015.99
2018-10-09T11:25:52.191Z,1015.98
2018-10-09T11:26:31.139Z,1015.94
2018-10-09T11:27:31.068Z,1015.94
2018-10-09T11:28:30.996Z,1015.91
2018-10-09T11:29:30.938Z,1015.87
2018-10-09T11:30:30.862Z,1015.85
2018-10-09T11:31:51.773Z,1015.87
2018-10-09T11:32:30.763Z,1015.86
2018-10-09T11:33:30.655Z,1015.84
2018-10-09T11:34:30.584Z,1015.80
2018-10-09T11:35:30.510Z,1015.81
2018-10-09T11:36:30.438Z,1015.75
2018-10-09T11:37:51.357Z,1015.75
2018-10-09T11:38:30.301Z,1015.69
2018-10-09T11:39:30.229Z,1015.73
2018-10-09T11:40:30.161Z,1015.74
2018-10-09T11:41:30.086Z,1015.69
2018-10-09T11:42:30.024Z,1015.65
2018-10-09T11:43:50.941Z,1015.61
2018-10-09T11:44:29.878Z,1015.60
2018-10-09T11:45:29.808Z,1015.58
2018-10-09T11:46:29.741Z,1015.59
2018-10-09T11:47:29.670Z,1015.58
2018-10-09T11:48:29.601Z,1015.60
2018-10-09T11:49:50.517Z,1015.58
2018-10-09T11:50:29.460Z,1015.57
2018-10-09T11:51:29.390Z,1015.58
2018-10-09T11:52:29.321Z,1015.55
2018-10-09T11:53:29.250Z,1015.52
2018-10-09T11:54:29.184Z,1015.54
2018-10-09T11:55:50.096Z,1015.54
2018-10-09T11:56:29.041Z,1015.55
2018-10-09T11:57:29.030Z,1015.55
2018-10-09T11:58:28.966Z,1015.52
2018-10-09T11:59:28.832Z,1015.52
2018-10-09T12:00:28.765Z,1015.48
2018-10-09T12:01:49.677Z,1015.46
2018-10-09T12:02:28.624Z,1015.45
2018-10-09T12:03:28.560Z,1015.47
2018-10-09T12:04:28.484Z,1015.40